createdAt,value
2018-11-21T00:00:07.465Z,42.37
2018-11-21T00:02:35.813Z,40.03
2018-11-21T00:05:04.627Z,37.60
2018-11-21T00:07:36.239Z,37.77
2018-11-21T00:10:09.240Z,42.13
2018-11-21T00:12:38.410Z,45.17
2018-11-21T00:15:08.548Z,47.90
2018-11-21T00:17:36.908Z,41.17
2018-11-21T00:20:06.271Z,43.67
2018-11-21T00:22:34.810Z,48.50
2018-11-21T00:25:03.181Z,41.73
2018-11-21T00:27:31.523Z,45.77
2018-11-21T00:30:00.058Z,43.63
2018-11-21T00:32:28.714Z,41.07
2018-11-21T00:34:57.126Z,42.80
2018-11-21T00:37:26.101Z,42.97
2018-11-21T00:39:54.793Z,44.13
2018-11-21T00:42:23.165Z,45.47
2018-11-21T00:44:51.515Z,42.90
2018-11-21T00:47:19.848Z,41.57
2018-11-21T00:49:48.215Z,40.07
2018-11-21T00:52:16.571Z,41.93
2018-11-21T00:54:44.927Z,43.03
2018-11-21T00:57:13.264Z,41.17
2018-11-21T00:59:41.629Z,42.23
2018-11-21T01:02:10.002Z,37.30
2018-11-21T01:04:38.331Z,41.27
2018-11-21T01:07:06.698Z,41.60
2018-11-21T01:09:35.041Z,42.60
2018-11-21T01:12:03.408Z,39.13
2018-11-21T01:14:31.752Z,45.27
2018-11-21T01:17:00.129Z,42.43
2018-11-21T01:19:28.469Z,43.57
2018-11-21T01:21:56.843Z,39.90
2018-11-21T01:24:25.221Z,42.67
2018-11-21T01:26:53.563Z,38.97
2018-11-21T01:29:21.917Z,40.33
2018-11-21T01:31:50.256Z,40.80
2018-11-21T01:34:18.602Z,43.47
2018-11-21T01:36:46.968Z,42.07
2018-11-21T01:39:15.302Z,40.07
2018-11-21T01:41:43.660Z,41.63
2018-11-21T01:44:12.038Z,38.63
2018-11-21T01:46:40.398Z,41.50
2018-11-21T01:49:08.740Z,45.07
2018-11-21T01:51:37.121Z,40.20
2018-11-21T01:54:05.757Z,42.53
2018-11-21T01:56:34.127Z,40.53
2018-11-21T01:59:02.485Z,43.90
2018-11-21T02:01:30.852Z,41.47
2018-11-21T02:03:59.199Z,42.10
2018-11-21T02:06:27.563Z,39.53
2018-11-21T02:08:55.910Z,39.33
2018-11-21T02:11:24.265Z,42.13
2018-11-21T02:13:52.596Z,37.40
2018-11-21T02:16:20.899Z,40.17
2018-11-21T02:18:49.272Z,41.27
2018-11-21T02:21:17.613Z,42.70
2018-11-21T02:23:45.989Z,40.93
2018-11-21T02:26:14.317Z,40.93
2018-11-21T02:28:42.686Z,43.33
2018-11-21T02:31:11.065Z,40.83
2018-11-21T02:33:39.435Z,43.73
2018-11-21T02:36:07.818Z,45.07
2018-11-21T02:38:36.178Z,42.67
2018-11-21T02:41:04.743Z,40.03
2018-11-21T02:43:33.123Z,39.03
2018-11-21T02:46:01.465Z,41.87
2018-11-21T02:48:29.801Z,40.93
2018-11-21T02:50:58.170Z,41.70
2018-11-21T02:53:26.608Z,41.37
2018-11-21T02:55:54.991Z,40.70
2018-11-21T02:58:23.333Z,42.83
2018-11-21T03:00:51.674Z,43.53
2018-11-21T03:03:20.060Z,41.63
2018-11-21T03:05:48.393Z,41.07
2018-11-21T03:08:16.722Z,40.30
2018-11-21T03:10:45.109Z,39.63
2018-11-21T03:13:13.542Z,41.73
2018-11-21T03:15:41.939Z,42.37
2018-11-21T03:18:10.416Z,39.70
2018-11-21T03:20:38.747Z,44.30
2018-11-21T03:23:07.135Z,39.17
2018-11-21T03:25:35.475Z,39.67
2018-11-21T03:28:03.843Z,36.27
2018-11-21T03:30:32.195Z,43.90
2018-11-21T03:33:00.558Z,39.87
2018-11-21T03:35:28.900Z,40.63
2018-11-21T03:37:57.251Z,44.00
2018-11-21T03:40:25.585Z,45.93
2018-11-21T03:42:53.938Z,41.17
2018-11-21T03:45:22.331Z,41.90
2018-11-21T03:47:50.690Z,43.73
2018-11-21T03:50:19.048Z,43.50
2018-11-21T03:52:47.399Z,47.60
2018-11-21T03:55:15.740Z,39.37
2018-11-21T03:57:44.098Z,43.30
2018-11-21T04:00:13.576Z,44.07
2018-11-21T04:02:42.336Z,38.93
2018-11-21T04:05:11.042Z,42.83
2018-11-21T04:07:39.428Z,45.10
2018-11-21T04:10:10.095Z,43.13
2018-11-21T04:12:38.458Z,45.57
2018-11-21T04:15:08.780Z,44.67
2018-11-21T04:17:37.214Z,42.87
2018-11-21T04:20:06.221Z,46.17
2018-11-21T04:22:34.581Z,41.13
2018-11-21T04:25:02.938Z,45.60
2018-11-21T04:27:31.321Z,45.23
2018-11-21T04:29:59.674Z,41.77
2018-11-21T04:32:28.205Z,44.67
2018-11-21T04:34:56.554Z,42.60
2018-11-21T04:37:24.920Z,42.27
2018-11-21T04:39:53.280Z,42.87
2018-11-21T04:42:21.716Z,45.40
2018-11-21T04:44:50.077Z,42.60
2018-11-21T04:47:18.412Z,43.57
2018-11-21T04:49:46.797Z,46.93
2018-11-21T04:52:15.148Z,46.93
2018-11-21T04:54:43.497Z,49.93
2018-11-21T04:57:11.829Z,44.10
2018-11-21T04:59:40.183Z,47.77
2018-11-21T05:02:08.536Z,48.30
2018-11-21T05:04:36.912Z,47.07
2018-11-21T05:07:05.300Z,50.33
2018-11-21T05:09:33.646Z,51.50
2018-11-21T05:12:02.039Z,48.10
2018-11-21T05:14:30.381Z,50.13
2018-11-21T05:16:58.820Z,49.63
2018-11-21T05:19:27.187Z,49.93
2018-11-21T05:21:55.567Z,50.97
2018-11-21T05:24:23.933Z,43.37
2018-11-21T05:26:52.281Z,49.20
2018-11-21T05:29:20.675Z,52.90
2018-11-21T05:31:49.050Z,51.73
2018-11-21T05:34:17.404Z,49.40
2018-11-21T05:36:45.763Z,50.43
2018-11-21T05:39:14.122Z,53.13
2018-11-21T05:41:42.475Z,53.87
2018-11-21T05:44:10.848Z,50.20
2018-11-21T05:46:39.254Z,51.90
2018-11-21T05:49:07.748Z,52.70
2018-11-21T05:51:36.134Z,47.30
2018-11-21T05:54:04.505Z,59.53
2018-11-21T05:56:32.864Z,48.30
2018-11-21T05:59:01.241Z,49.93
2018-11-21T06:01:29.606Z,52.53
2018-11-21T06:03:57.997Z,47.40
2018-11-21T06:06:26.327Z,45.97
2018-11-21T06:08:54.680Z,50.30
2018-11-21T06:11:23.031Z,49.17
2018-11-21T06:13:51.400Z,45.10
2018-11-21T06:16:19.757Z,49.40
2018-11-21T06:18:48.383Z,50.50
2018-11-21T06:21:16.751Z,48.67
2018-11-21T06:23:45.097Z,47.60
2018-11-21T06:26:13.481Z,51.83
2018-11-21T06:28:41.827Z,49.87
2018-11-21T06:31:10.188Z,46.00
2018-11-21T06:33:38.539Z,44.23
2018-11-21T06:36:06.874Z,52.00
2018-11-21T06:38:35.209Z,49.33
2018-11-21T06:41:03.697Z,49.40
2018-11-21T06:43:32.039Z,47.83
2018-11-21T06:46:00.379Z,49.50
2018-11-21T06:48:28.737Z,47.77
2018-11-21T06:50:57.097Z,51.07
2018-11-21T06:53:25.489Z,47.93
2018-11-21T06:55:53.839Z,48.17
2018-11-21T06:58:22.316Z,45.77
2018-11-21T07:00:50.665Z,49.97
2018-11-21T07:03:19.108Z,51.43
2018-11-21T07:05:47.459Z,46.47
2018-11-21T07:08:15.802Z,46.97
2018-11-21T07:10:44.139Z,50.33
2018-11-21T07:13:12.518Z,53.23
2018-11-21T07:15:40.862Z,49.97
2018-11-21T07:18:09.332Z,50.83
2018-11-21T07:20:37.668Z,54.20
2018-11-21T07:23:06.052Z,51.63
2018-11-21T07:25:34.395Z,53.97
2018-11-21T07:28:02.747Z,52.90
2018-11-21T07:30:31.105Z,50.97
2018-11-21T07:32:59.476Z,46.90
2018-11-21T07:35:27.809Z,50.10
2018-11-21T07:37:56.186Z,52.53
2018-11-21T07:40:24.526Z,55.17
2018-11-21T07:42:52.876Z,53.23
2018-11-21T07:45:21.226Z,51.80
2018-11-21T07:47:49.692Z,51.70
2018-11-21T07:50:19.623Z,53.97
2018-11-21T07:52:48.005Z,53.27
2018-11-21T07:55:16.304Z,53.20
2018-11-21T07:58:05.374Z,53.83
2018-11-21T08:01:25.130Z,63.17
2018-11-21T08:03:58.537Z,56.27
2018-11-21T08:06:33.961Z,54.13
2018-11-21T08:09:24.212Z,61.43
2018-11-21T08:12:10.251Z,56.73
2018-11-21T08:15:00.690Z,58.83
2018-11-21T08:17:47.197Z,57.30
2018-11-21T08:20:41.022Z,58.00
2018-11-21T08:23:43.898Z,54.80
2018-11-21T08:26:29.491Z,58.80
2018-11-21T08:28:57.842Z,56.00
2018-11-21T08:31:26.194Z,57.60
2018-11-21T08:33:54.560Z,60.40
2018-11-21T08:36:22.948Z,60.40
2018-11-21T08:38:51.293Z,60.77
2018-11-21T08:41:19.643Z,60.13
2018-11-21T08:43:47.995Z,52.87
2018-11-21T08:46:16.348Z,62.60
2018-11-21T08:48:44.692Z,59.73
2018-11-21T08:51:13.064Z,61.13
2018-11-21T08:53:41.394Z,55.70
2018-11-21T08:56:09.751Z,60.80
2018-11-21T08:58:38.080Z,60.17
2018-11-21T09:01:06.419Z,57.70
2018-11-21T09:03:34.740Z,56.73
2018-11-21T09:06:04.477Z,58.23
2018-11-21T09:08:31.547Z,58.87
2018-11-21T09:11:00.498Z,58.90
2018-11-21T09:13:28.870Z,57.63
2018-11-21T09:15:57.370Z,58.00
2018-11-21T09:18:25.713Z,62.87
2018-11-21T09:20:54.938Z,59.20
2018-11-21T09:23:23.310Z,60.23
2018-11-21T09:25:51.729Z,57.83
2018-11-21T09:28:20.110Z,56.63
2018-11-21T09:30:48.533Z,54.70
2018-11-21T09:33:16.884Z,58.83
2018-11-21T09:35:46.104Z,57.27
2018-11-21T09:38:14.501Z,55.60
2018-11-21T09:40:43.076Z,61.23
2018-11-21T09:43:11.637Z,55.63
2018-11-21T09:45:40.013Z,58.47
2018-11-21T09:48:08.364Z,56.40
2018-11-21T09:50:36.753Z,57.27
2018-11-21T09:53:05.526Z,55.27
2018-11-21T09:55:33.918Z,55.90
2018-11-21T09:58:02.273Z,57.63
2018-11-21T10:01:07.452Z,57.47
2018-11-21T10:03:37.136Z,55.20
2018-11-21T10:06:10.939Z,52.57
2018-11-21T10:08:46.595Z,53.93
2018-11-21T10:11:15.390Z,54.43
2018-11-21T10:13:43.811Z,53.60
2018-11-21T10:16:12.138Z,52.43
2018-11-21T10:18:42.068Z,58.67
2018-11-21T10:21:12.047Z,58.33
2018-11-21T10:23:40.400Z,55.10
2018-11-21T10:26:09.024Z,52.37
2018-11-21T10:28:37.882Z,56.43
2018-11-21T10:31:06.265Z,57.87
2018-11-21T10:33:34.638Z,56.93
2018-11-21T10:36:03.374Z,55.03
2018-11-21T10:38:31.737Z,53.07
2018-11-21T10:41:00.096Z,56.40
2018-11-21T10:43:28.570Z,55.87
2018-11-21T10:45:56.829Z,54.87
2018-11-21T10:48:25.193Z,58.03
2018-11-21T10:50:53.560Z,50.10
2018-11-21T10:53:21.916Z,54.70
2018-11-21T10:55:50.294Z,55.47
2018-11-21T10:58:18.659Z,55.73
2018-11-21T11:01:04.615Z,54.00
2018-11-21T11:03:52.115Z,57.80
2018-11-21T11:06:51.989Z,57.60
2018-11-21T11:09:48.523Z,57.97
2018-11-21T11:12:54.005Z,59.50
2018-11-21T11:15:47.549Z,55.20
2018-11-21T11:18:26.299Z,58.97
2018-11-21T11:21:12.620Z,59.03
2018-11-21T11:24:09.736Z,59.50
2018-11-21T11:26:57.273Z,55.27
2018-11-21T11:29:49.199Z,57.03
2018-11-21T11:32:35.383Z,55.87
2018-11-21T11:35:21.182Z,60.00
2018-11-21T11:38:17.957Z,62.57
2018-11-21T11:41:04.565Z,60.57
2018-11-21T11:44:01.562Z,57.77
2018-11-21T11:46:37.347Z,58.20
2018-11-21T11:49:33.980Z,60.90
2018-11-21T11:52:20.424Z,55.70
2018-11-21T11:55:08.304Z,59.77
2018-11-21T11:58:04.702Z,57.43
2018-11-21T12:00:51.000Z,58.57
2018-11-21T12:03:38.157Z,59.53
2018-11-21T12:06:24.336Z,59.43
2018-11-21T12:09:14.650Z,59.30
2018-11-21T12:12:20.207Z,54.93
2018-11-21T12:15:07.742Z,59.53
2018-11-21T12:18:10.384Z,53.80
2018-11-21T12:20:56.590Z,54.93
2018-11-21T12:23:42.704Z,54.87
2018-11-21T12:26:39.052Z,59.57
2018-11-21T12:29:25.242Z,56.33
2018-11-21T12:32:05.095Z,58.27
2018-11-21T12:34:51.401Z,59.63
2018-11-21T12:37:37.551Z,59.37
2018-11-21T12:40:26.450Z,55.83
2018-11-21T12:43:13.475Z,54.50
2018-11-21T12:46:02.526Z,52.53
2018-11-21T12:48:49.151Z,53.00
2018-11-21T12:51:35.296Z,52.23
2018-11-21T12:54:28.589Z,56.77
2018-11-21T12:57:14.682Z,55.20
2018-11-21T13:00:00.757Z,55.73
2018-11-21T13:02:41.515Z,51.67
2018-11-21T13:05:47.546Z,58.17
2018-11-21T13:08:28.870Z,59.13
2018-11-21T13:11:14.960Z,53.73
2018-11-21T13:13:59.005Z,55.47
2018-11-21T13:16:45.092Z,52.33
2018-11-21T13:19:31.379Z,52.37
2018-11-21T13:22:18.922Z,53.90
2018-11-21T13:25:05.039Z,54.83
2018-11-21T13:27:51.493Z,50.57
2018-11-21T13:30:51.122Z,49.10
2018-11-21T13:33:41.143Z,56.23
2018-11-21T13:36:28.665Z,55.60
2018-11-21T13:39:34.660Z,54.10
2018-11-21T13:42:22.196Z,54.47
2018-11-21T13:45:12.514Z,53.93
2018-11-21T13:48:18.237Z,54.73
2018-11-21T13:51:04.406Z,55.23
2018-11-21T13:53:50.787Z,57.47
2018-11-21T13:56:19.207Z,55.07
2018-11-21T13:58:47.560Z,54.50
2018-11-21T14:01:15.935Z,55.20
2018-11-21T14:03:44.314Z,57.63
2018-11-21T14:06:12.726Z,57.20
2018-11-21T14:08:41.136Z,51.70
2018-11-21T14:11:09.497Z,56.60
2018-11-21T14:13:37.886Z,56.13
2018-11-21T14:16:06.289Z,55.97
2018-11-21T14:18:34.712Z,53.20
2018-11-21T14:21:03.090Z,53.07
2018-11-21T14:23:31.469Z,52.80
2018-11-21T14:26:00.415Z,55.83
2018-11-21T14:28:28.899Z,64.33
2018-11-21T14:30:57.268Z,58.83
2018-11-21T14:33:25.644Z,58.30
2018-11-21T14:35:56.129Z,63.73
2018-11-21T14:38:22.363Z,55.40
2018-11-21T14:40:50.760Z,57.47
2018-11-21T14:43:19.109Z,57.97
2018-11-21T14:45:47.466Z,54.47
2018-11-21T14:48:15.860Z,62.57
2018-11-21T14:50:44.186Z,54.40
2018-11-21T14:53:12.568Z,59.40
2018-11-21T14:55:40.919Z,60.30
2018-11-21T14:58:09.293Z,56.63
2018-11-21T15:00:37.657Z,56.30
2018-11-21T15:03:06.345Z,55.57
2018-11-21T15:05:34.779Z,57.17
2018-11-21T15:08:03.160Z,57.90
2018-11-21T15:10:31.540Z,58.73
2018-11-21T15:12:59.924Z,53.97
2018-11-21T15:15:28.336Z,54.43
2018-11-21T15:17:56.689Z,54.37
2018-11-21T15:20:25.808Z,55.50
2018-11-21T15:22:54.173Z,53.40
2018-11-21T15:25:23.343Z,57.77
2018-11-21T15:27:51.750Z,50.37
2018-11-21T15:30:28.097Z,53.97
2018-11-21T15:32:56.447Z,54.00
2018-11-21T15:35:24.945Z,54.63
2018-11-21T15:37:53.553Z,56.83
2018-11-21T15:40:23.164Z,58.03
2018-11-21T15:42:51.515Z,52.73
2018-11-21T15:45:21.297Z,55.67
2018-11-21T15:47:54.114Z,51.67
2018-11-21T15:50:22.462Z,49.53
2018-11-21T15:52:53.083Z,57.33
2018-11-21T15:55:19.477Z,54.37
2018-11-21T15:57:48.004Z,55.73
2018-11-21T16:00:18.379Z,55.93
2018-11-21T16:02:47.759Z,55.87
2018-11-21T16:05:16.861Z,54.83
2018-11-21T16:07:45.239Z,46.40
2018-11-21T16:10:18.895Z,52.40
2018-11-21T16:12:43.362Z,49.93
2018-11-21T16:15:17.340Z,49.90
2018-11-21T16:17:45.764Z,56.80
2018-11-21T16:20:15.214Z,53.43
2018-11-21T16:22:43.575Z,50.77
2018-11-21T16:25:13.489Z,50.60
2018-11-21T16:27:42.713Z,51.27
2018-11-21T16:30:13.246Z,55.80
2018-11-21T16:32:42.048Z,53.77
2018-11-21T16:35:10.810Z,54.70
2018-11-21T16:37:40.009Z,56.60
2018-11-21T16:40:10.414Z,58.47
2018-11-21T16:42:39.240Z,56.63
2018-11-21T16:45:09.151Z,57.67
2018-11-21T16:47:37.743Z,57.47
2018-11-21T16:50:08.982Z,57.53
2018-11-21T16:52:37.368Z,59.33
2018-11-21T16:55:07.299Z,55.37
2018-11-21T16:57:35.668Z,61.17
2018-11-21T17:00:04.719Z,55.60
2018-11-21T17:02:33.061Z,60.50
2018-11-21T17:05:01.459Z,58.70
2018-11-21T17:07:29.859Z,55.47
2018-11-21T17:09:58.275Z,58.70
2018-11-21T17:12:26.630Z,54.93
2018-11-21T17:14:54.995Z,55.37
2018-11-21T17:17:23.357Z,56.30
2018-11-21T17:19:51.773Z,55.83
2018-11-21T17:22:20.217Z,57.03
2018-11-21T17:24:48.675Z,55.97
2018-11-21T17:27:17.083Z,56.57
2018-11-21T17:29:53.590Z,50.80
2018-11-21T17:32:13.852Z,51.30
2018-11-21T17:34:42.220Z,53.93
2018-11-21T17:37:10.574Z,52.90
2018-11-21T17:39:38.943Z,53.70
2018-11-21T17:42:07.335Z,53.63
2018-11-21T17:44:35.716Z,53.27
2018-11-21T17:47:04.120Z,52.37
2018-11-21T17:49:32.497Z,55.93
2018-11-21T17:52:00.904Z,50.47
2018-11-21T17:54:29.289Z,53.13
2018-11-21T17:56:57.676Z,51.23
2018-11-21T17:59:26.092Z,48.73
2018-11-21T18:01:54.503Z,46.87
2018-11-21T18:04:22.884Z,49.23
2018-11-21T18:06:51.250Z,44.43
2018-11-21T18:09:19.595Z,44.47
2018-11-21T18:11:47.975Z,41.47
2018-11-21T18:14:16.358Z,38.27
2018-11-21T18:16:44.728Z,44.00
2018-11-21T18:19:13.108Z,43.10
2018-11-21T18:21:41.464Z,48.37
2018-11-21T18:24:09.852Z,44.00
2018-11-21T18:26:38.522Z,41.90
2018-11-21T18:29:11.622Z,41.00
2018-11-21T18:31:35.266Z,42.50
2018-11-21T18:34:03.662Z,38.87
2018-11-21T18:36:32.026Z,35.33
2018-11-21T18:39:00.412Z,36.00
2018-11-21T18:41:28.798Z,34.77
2018-11-21T18:43:57.178Z,38.57
2018-11-21T18:46:25.580Z,35.27
2018-11-21T18:48:53.938Z,31.73
2018-11-21T18:51:22.301Z,33.37
2018-11-21T18:53:54.767Z,34.30
2018-11-21T18:56:29.177Z,43.50
2018-11-21T18:59:12.415Z,46.13
2018-11-21T19:01:46.606Z,42.70
2018-11-21T19:04:09.167Z,42.83
2018-11-21T19:06:37.603Z,40.47
2018-11-21T19:09:10.359Z,44.77
2018-11-21T19:11:38.747Z,42.90
2018-11-21T19:14:07.737Z,42.07
2018-11-21T19:16:36.334Z,40.73
2018-11-21T19:19:05.011Z,41.57
2018-11-21T19:21:33.418Z,36.43
2018-11-21T19:24:02.165Z,37.90
2018-11-21T19:26:30.747Z,39.20
2018-11-21T19:28:59.116Z,39.13
2018-11-21T19:31:29.771Z,42.37
2018-11-21T19:33:55.879Z,41.63
2018-11-21T19:36:24.240Z,41.00
2018-11-21T19:38:52.616Z,42.33
2018-11-21T19:41:21.005Z,45.10
2018-11-21T19:43:49.413Z,44.30
2018-11-21T19:46:17.792Z,49.10
2018-11-21T19:48:46.182Z,45.60
2018-11-21T19:51:14.630Z,45.87
2018-11-21T19:53:43.019Z,47.13
2018-11-21T19:56:11.413Z,46.10
2018-11-21T19:58:39.831Z,59.37
2018-11-21T20:01:08.233Z,45.83
2018-11-21T20:03:36.595Z,48.73
2018-11-21T20:06:05.450Z,46.73
2018-11-21T20:08:33.813Z,45.50
2018-11-21T20:11:02.158Z,45.60
2018-11-21T20:13:30.553Z,43.53
2018-11-21T20:15:58.922Z,49.03
2018-11-21T20:18:27.344Z,50.00
2018-11-21T20:20:55.844Z,47.57
2018-11-21T20:23:24.264Z,46.93
2018-11-21T20:25:52.630Z,44.90
2018-11-21T20:28:21.046Z,47.23
2018-11-21T20:30:49.410Z,45.40
2018-11-21T20:33:17.918Z,48.03
2018-11-21T20:35:46.280Z,49.13
2018-11-21T20:38:14.656Z,49.30
2018-11-21T20:40:43.214Z,51.13
2018-11-21T20:43:11.562Z,55.23
2018-11-21T20:45:40.008Z,50.83
2018-11-21T20:48:08.429Z,51.53
2018-11-21T20:50:36.806Z,50.23
2018-11-21T20:53:05.754Z,54.30
2018-11-21T20:55:34.744Z,57.97
2018-11-21T20:58:03.104Z,61.77
2018-11-21T21:00:31.974Z,60.20
2018-11-21T21:03:00.351Z,61.53
2018-11-21T21:05:48.112Z,66.60
2018-11-21T21:08:16.506Z,65.77
2018-11-21T21:10:46.121Z,75.00
2018-11-21T21:13:14.471Z,70.90
2018-11-21T21:15:42.952Z,68.90
2018-11-21T21:18:11.389Z,74.17
2018-11-21T21:20:39.766Z,69.10
2018-11-21T21:23:08.129Z,63.27
2018-11-21T21:25:36.509Z,66.43
2018-11-21T21:28:05.159Z,71.37
2018-11-21T21:30:34.157Z,70.57
2018-11-21T21:33:02.733Z,68.87
2018-11-21T21:35:32.535Z,72.00
2018-11-21T21:38:00.883Z,72.63
2018-11-21T21:40:29.264Z,71.67
2018-11-21T21:42:57.625Z,68.47
2018-11-21T21:45:27.677Z,70.83
2018-11-21T21:47:56.053Z,71.37
2018-11-21T21:50:26.069Z,74.63
2018-11-21T21:52:54.406Z,73.17
2018-11-21T21:55:24.120Z,75.40
2018-11-21T21:57:52.421Z,68.00
2018-11-21T22:00:40.200Z,70.63
2018-11-21T22:03:08.538Z,68.97
2018-11-21T22:05:36.889Z,69.10
2018-11-21T22:08:05.744Z,69.47
2018-11-21T22:10:34.110Z,75.90
2018-11-21T22:13:02.501Z,66.63
2018-11-21T22:15:35.247Z,74.17
2018-11-21T22:18:07.934Z,72.23
2018-11-21T22:20:36.352Z,70.03
2018-11-21T22:23:04.717Z,71.73
2018-11-21T22:25:36.366Z,69.40
2018-11-21T22:28:04.846Z,70.87
2018-11-21T22:30:33.220Z,71.67
2018-11-21T22:33:02.010Z,64.37
2018-11-21T22:35:32.224Z,66.37
2018-11-21T22:38:00.602Z,70.27
2018-11-21T22:40:29.180Z,63.70
2018-11-21T22:42:57.546Z,67.87
2018-11-21T22:45:25.914Z,65.90
2018-11-21T22:47:54.246Z,68.60
2018-11-21T22:50:23.824Z,71.90
2018-11-21T22:52:52.261Z,66.57
2018-11-21T22:55:20.995Z,65.33
2018-11-21T22:57:49.829Z,61.77
2018-11-21T23:00:43.391Z,63.40
2018-11-21T23:03:12.762Z,64.67
2018-11-21T23:05:41.223Z,66.27
2018-11-21T23:08:09.674Z,71.57
2018-11-21T23:10:38.014Z,72.97
2018-11-21T23:13:06.414Z,70.60
